WON1885 WICC-WAHS
Flight info
| Callsign | WON1885 |
|---|---|
| Flight time | N/A |
| Altitude | 15000 |
| Route | CA W45 PIALA |
| Aircraft | AT76/M-SDFGIRY/S |
Departure
| Time | 2026-05-08 09:01 |
|---|---|
| Airport | Husein Sastranegara International Airport (WICC) |
Arrival
| Time | N/A |
|---|---|
| Airport | Jenderal Ahmad Yani Airport (WAHS) |
| Time | Latitude | Longitude | Altitude | Speed | Heading |
|---|---|---|---|---|---|
| 2026-05-08 08:19 | -6.90294 | 107.57918 | 2418 ft | 0 kts | 189° |
| 2026-05-08 08:55 | -6.90318 | 107.57920 | 2408 ft | 6 kts | 149° |
| 2026-05-08 08:55 | -6.90329 | 107.57961 | 2413 ft | 7 kts | 86° |
| 2026-05-08 08:56 | -6.90317 | 107.58003 | 2413 ft | 6 kts | 75° |
| 2026-05-08 08:56 | -6.90311 | 107.58028 | 2410 ft | 0 kts | 75° |
| 2026-05-08 08:56 | -6.90310 | 107.58029 | 2410 ft | 1 kts | 75° |
| 2026-05-08 08:57 | -6.90305 | 107.58043 | 2415 ft | 3 kts | 66° |
| 2026-05-08 08:57 | -6.90291 | 107.58055 | 2420 ft | 4 kts | 26° |
| 2026-05-08 08:57 | -6.90250 | 107.58070 | 2428 ft | 4 kts | 17° |
| 2026-05-08 08:57 | -6.90230 | 107.58095 | 2427 ft | 10 kts | 82° |
| 2026-05-08 08:58 | -6.90266 | 107.58212 | 2432 ft | 24 kts | 108° |
| 2026-05-08 08:58 | -6.90329 | 107.58396 | 2425 ft | 28 kts | 108° |
| 2026-05-08 08:58 | -6.90380 | 107.58505 | 2414 ft | 11 kts | 146° |
| 2026-05-08 08:58 | -6.90391 | 107.58552 | 2412 ft | 4 kts | 27° |
| 2026-05-08 08:59 | -6.90385 | 107.58551 | 2413 ft | 0 kts | 339° |
| 2026-05-08 08:59 | -6.90381 | 107.58544 | 2417 ft | 1 kts | 293° |
| 2026-05-08 08:59 | -6.90381 | 107.58543 | 2417 ft | 0 kts | 293° |
| 2026-05-08 09:00 | -6.90338 | 107.58427 | 2422 ft | 43 kts | 287° |
| 2026-05-08 09:00 | -6.90182 | 107.57964 | 2413 ft | 97 kts | 289° |
| 2026-05-08 09:01 | -6.89913 | 107.57186 | 2469 ft | 134 kts | 288° |
| 2026-05-08 09:01 | -6.89646 | 107.56294 | 2998 ft | 134 kts | 286° |
| 2026-05-08 09:01 | -6.89405 | 107.55390 | 3486 ft | 135 kts | 287° |
| 2026-05-08 09:01 | -6.89118 | 107.54392 | 3525 ft | 161 kts | 288° |
| 2026-05-08 09:02 | -6.88799 | 107.53224 | 3567 ft | 183 kts | 286° |
| 2026-05-08 09:02 | -6.88477 | 107.51972 | 3817 ft | 186 kts | 286° |
| 2026-05-08 09:02 | -6.88156 | 107.50709 | 4165 ft | 187 kts | 285° |
| 2026-05-08 09:02 | -6.87830 | 107.49436 | 4547 ft | 188 kts | 285° |
| 2026-05-08 09:03 | -6.87494 | 107.48164 | 4901 ft | 188 kts | 286° |
| 2026-05-08 09:03 | -6.87142 | 107.46891 | 5237 ft | 189 kts | 286° |
| 2026-05-08 09:03 | -6.86781 | 107.45610 | 5551 ft | 191 kts | 286° |
| 2026-05-08 09:03 | -6.86410 | 107.44323 | 5879 ft | 192 kts | 286° |
| 2026-05-08 09:04 | -6.86029 | 107.43030 | 6198 ft | 194 kts | 287° |
| 2026-05-08 09:04 | -6.85646 | 107.41745 | 6495 ft | 195 kts | 287° |
| 2026-05-08 09:04 | -6.85298 | 107.40426 | 6785 ft | 196 kts | 273° |
| 2026-05-08 09:04 | -6.85694 | 107.39158 | 7075 ft | 194 kts | 228° |
| 2026-05-08 09:05 | -6.86853 | 107.38537 | 7348 ft | 192 kts | 183° |
| 2026-05-08 09:05 | -6.88101 | 107.38902 | 7626 ft | 191 kts | 140° |
| 2026-05-08 09:05 | -6.88733 | 107.40045 | 7944 ft | 191 kts | 97° |
| 2026-05-08 09:05 | -6.88759 | 107.41396 | 8200 ft | 194 kts | 88° |
| 2026-05-08 09:06 | -6.88664 | 107.42752 | 8502 ft | 195 kts | 86° |
| 2026-05-08 09:06 | -6.88521 | 107.44113 | 8790 ft | 196 kts | 84° |
| 2026-05-08 09:06 | -6.88388 | 107.45481 | 9055 ft | 197 kts | 86° |
| 2026-05-08 09:06 | -6.88264 | 107.46858 | 9305 ft | 197 kts | 86° |
| 2026-05-08 09:07 | -6.88157 | 107.48234 | 9536 ft | 198 kts | 88° |
| 2026-05-08 09:07 | -6.88117 | 107.49621 | 9808 ft | 198 kts | 91° |
| 2026-05-08 09:07 | -6.88132 | 107.50993 | 10025 ft | 199 kts | 94° |
| 2026-05-08 09:07 | -6.88118 | 107.52388 | 10257 ft | 200 kts | 86° |
| 2026-05-08 09:08 | -6.87964 | 107.53790 | 10474 ft | 202 kts | 85° |
| 2026-05-08 09:08 | -6.87782 | 107.55189 | 10703 ft | 202 kts | 85° |
| 2026-05-08 09:08 | -6.87651 | 107.56602 | 10913 ft | 202 kts | 87° |
| 2026-05-08 09:08 | -6.87464 | 107.58010 | 11127 ft | 204 kts | 81° |
| 2026-05-08 09:09 | -6.87163 | 107.59404 | 11334 ft | 204 kts | 79° |
| 2026-05-08 09:09 | -6.86845 | 107.60799 | 11538 ft | 205 kts | 80° |
| 2026-05-08 09:09 | -6.86548 | 107.62201 | 11756 ft | 205 kts | 81° |
| 2026-05-08 09:09 | -6.86284 | 107.63615 | 11974 ft | 205 kts | 82° |
| 2026-05-08 09:10 | -6.86038 | 107.65035 | 12196 ft | 206 kts | 82° |
| 2026-05-08 09:10 | -6.85798 | 107.66458 | 12407 ft | 207 kts | 83° |
| 2026-05-08 09:10 | -6.85560 | 107.67887 | 12613 ft | 207 kts | 82° |
| 2026-05-08 09:10 | -6.85318 | 107.69321 | 12817 ft | 208 kts | 82° |
| 2026-05-08 09:11 | -6.85066 | 107.70758 | 13002 ft | 209 kts | 82° |
| 2026-05-08 09:11 | -6.84813 | 107.72177 | 13185 ft | 209 kts | 82° |
| 2026-05-08 09:11 | -6.84557 | 107.73624 | 13351 ft | 210 kts | 82° |
| 2026-05-08 09:11 | -6.84298 | 107.75075 | 13540 ft | 211 kts | 82° |
| 2026-05-08 09:12 | -6.84036 | 107.76527 | 13720 ft | 211 kts | 82° |
| 2026-05-08 09:12 | -6.83778 | 107.77985 | 13890 ft | 212 kts | 82° |
| 2026-05-08 09:12 | -6.83519 | 107.79450 | 14073 ft | 213 kts | 82° |
| 2026-05-08 09:12 | -6.83259 | 107.80918 | 14241 ft | 213 kts | 82° |
| 2026-05-08 09:13 | -6.82996 | 107.82392 | 14404 ft | 214 kts | 82° |
| 2026-05-08 09:13 | -6.82733 | 107.83869 | 14561 ft | 215 kts | 82° |
| 2026-05-08 09:13 | -6.82468 | 107.85353 | 14704 ft | 215 kts | 82° |
| 2026-05-08 09:13 | -6.82202 | 107.86840 | 14842 ft | 216 kts | 82° |
| 2026-05-08 09:14 | -6.81938 | 107.88330 | 14985 ft | 217 kts | 82° |
| 2026-05-08 09:14 | -6.81675 | 107.89805 | 15124 ft | 217 kts | 82° |
| 2026-05-08 09:14 | -6.81406 | 107.91308 | 15255 ft | 218 kts | 82° |
| 2026-05-08 09:14 | -6.81138 | 107.92814 | 15387 ft | 219 kts | 82° |
| 2026-05-08 09:15 | -6.80869 | 107.94325 | 15515 ft | 220 kts | 82° |
| 2026-05-08 09:15 | -6.80599 | 107.95841 | 15693 ft | 220 kts | 82° |
| 2026-05-08 09:15 | -6.80329 | 107.97356 | 15846 ft | 220 kts | 82° |
| 2026-05-08 09:15 | -6.80058 | 107.98874 | 16015 ft | 221 kts | 82° |
| 2026-05-08 09:16 | -6.79786 | 108.00398 | 16156 ft | 222 kts | 82° |
| 2026-05-08 09:16 | -6.79513 | 108.01928 | 16302 ft | 222 kts | 82° |
| 2026-05-08 09:16 | -6.79239 | 108.03462 | 16453 ft | 223 kts | 82° |
| 2026-05-08 09:16 | -6.78963 | 108.04997 | 16590 ft | 223 kts | 82° |
| 2026-05-08 09:17 | -6.78690 | 108.06532 | 16722 ft | 224 kts | 82° |
| 2026-05-08 09:17 | -6.78412 | 108.08086 | 16775 ft | 228 kts | 82° |
| 2026-05-08 09:17 | -6.78130 | 108.09668 | 16807 ft | 232 kts | 82° |
| 2026-05-08 09:17 | -6.77842 | 108.11279 | 16821 ft | 236 kts | 82° |
| 2026-05-08 09:18 | -6.77547 | 108.12920 | 16825 ft | 240 kts | 82° |
| 2026-05-08 09:18 | -6.77249 | 108.14585 | 16822 ft | 243 kts | 82° |
| 2026-05-08 09:18 | -6.76948 | 108.16267 | 16829 ft | 246 kts | 82° |
| 2026-05-08 09:18 | -6.76643 | 108.17972 | 16824 ft | 248 kts | 82° |
| 2026-05-08 09:19 | -6.76341 | 108.19659 | 16820 ft | 249 kts | 82° |
| 2026-05-08 09:19 | -6.76034 | 108.21375 | 16820 ft | 250 kts | 82° |
| 2026-05-08 09:19 | -6.75725 | 108.23103 | 16819 ft | 251 kts | 82° |
| 2026-05-08 09:19 | -6.75415 | 108.24833 | 16819 ft | 251 kts | 82° |
| 2026-05-08 09:20 | -6.75104 | 108.26564 | 16821 ft | 252 kts | 82° |
| 2026-05-08 09:20 | -6.74794 | 108.28301 | 16817 ft | 252 kts | 82° |
| 2026-05-08 09:20 | -6.74482 | 108.30040 | 16819 ft | 253 kts | 82° |
| 2026-05-08 09:20 | -6.74169 | 108.31785 | 16813 ft | 253 kts | 82° |
| 2026-05-08 09:21 | -6.73857 | 108.33525 | 16813 ft | 253 kts | 82° |
| 2026-05-08 09:21 | -6.73545 | 108.35268 | 16818 ft | 253 kts | 82° |
| 2026-05-08 09:22 | -6.71672 | 108.45707 | 16809 ft | 253 kts | 82° |
| 2026-05-08 09:23 | -6.71358 | 108.47452 | 16811 ft | 253 kts | 82° |
| 2026-05-08 09:23 | -6.71044 | 108.49196 | 16810 ft | 253 kts | 82° |
| 2026-05-08 09:23 | -6.70731 | 108.50941 | 16809 ft | 253 kts | 82° |
| 2026-05-08 09:23 | -6.70413 | 108.52683 | 16810 ft | 253 kts | 82° |
| 2026-05-08 09:24 | -6.70083 | 108.54430 | 16807 ft | 253 kts | 81° |
| 2026-05-08 09:24 | -6.69778 | 108.56167 | 16804 ft | 250 kts | 89° |
| 2026-05-08 09:24 | -6.69927 | 108.57894 | 16802 ft | 248 kts | 102° |
| 2026-05-08 09:24 | -6.70264 | 108.59598 | 16804 ft | 248 kts | 104° |
| 2026-05-08 09:25 | -6.70617 | 108.61298 | 16807 ft | 249 kts | 103° |
| 2026-05-08 09:25 | -6.70942 | 108.63015 | 16806 ft | 249 kts | 102° |
| 2026-05-08 09:25 | -6.71224 | 108.64733 | 16803 ft | 249 kts | 101° |
| 2026-05-08 09:25 | -6.71406 | 108.65876 | 16807 ft | 249 kts | 101° |
| 2026-05-08 09:26 | -6.71673 | 108.67603 | 16807 ft | 250 kts | 100° |
| 2026-05-08 09:26 | -6.71929 | 108.69330 | 16805 ft | 250 kts | 100° |
| 2026-05-08 09:26 | -6.72188 | 108.71056 | 16803 ft | 250 kts | 101° |
| 2026-05-08 09:26 | -6.72463 | 108.72782 | 16806 ft | 250 kts | 101° |
| 2026-05-08 09:27 | -6.72738 | 108.74507 | 16804 ft | 250 kts | 101° |
| 2026-05-08 09:27 | -6.73015 | 108.76238 | 16804 ft | 249 kts | 101° |
| 2026-05-08 09:27 | -6.73291 | 108.77961 | 16804 ft | 249 kts | 101° |
| 2026-05-08 09:27 | -6.73563 | 108.79664 | 16806 ft | 249 kts | 101° |
| 2026-05-08 09:28 | -6.73839 | 108.81389 | 16804 ft | 249 kts | 101° |
| 2026-05-08 09:28 | -6.74114 | 108.83113 | 16806 ft | 249 kts | 101° |
| 2026-05-08 09:28 | -6.74390 | 108.84834 | 16802 ft | 249 kts | 101° |
| 2026-05-08 09:28 | -6.74666 | 108.86560 | 16802 ft | 249 kts | 101° |
| 2026-05-08 09:29 | -6.74941 | 108.88283 | 16801 ft | 249 kts | 101° |
| 2026-05-08 09:29 | -6.75217 | 108.90007 | 16801 ft | 250 kts | 101° |
| 2026-05-08 09:29 | -6.75492 | 108.91729 | 16802 ft | 250 kts | 101° |
| 2026-05-08 09:29 | -6.75767 | 108.93452 | 16801 ft | 250 kts | 101° |
| 2026-05-08 09:30 | -6.76043 | 108.95180 | 16802 ft | 250 kts | 101° |
| 2026-05-08 09:30 | -6.76319 | 108.96903 | 16802 ft | 250 kts | 101° |
| 2026-05-08 09:30 | -6.76591 | 108.98609 | 16802 ft | 250 kts | 101° |
| 2026-05-08 09:30 | -6.76867 | 109.00333 | 16797 ft | 250 kts | 101° |
| 2026-05-08 09:31 | -6.77142 | 109.02057 | 16798 ft | 250 kts | 101° |
| 2026-05-08 09:31 | -6.77417 | 109.03780 | 16797 ft | 250 kts | 101° |
| 2026-05-08 09:31 | -6.77692 | 109.05507 | 16798 ft | 249 kts | 101° |
| 2026-05-08 09:31 | -6.77967 | 109.07230 | 16802 ft | 249 kts | 101° |
| 2026-05-08 09:32 | -6.78241 | 109.08954 | 16803 ft | 250 kts | 101° |
| 2026-05-08 09:32 | -6.78516 | 109.10678 | 16800 ft | 250 kts | 101° |
| 2026-05-08 09:32 | -6.78788 | 109.12401 | 16803 ft | 250 kts | 101° |
| 2026-05-08 09:32 | -6.79057 | 109.14127 | 16798 ft | 250 kts | 101° |
| 2026-05-08 09:33 | -6.79319 | 109.15852 | 16798 ft | 250 kts | 101° |
| 2026-05-08 09:33 | -6.79571 | 109.17581 | 16798 ft | 250 kts | 100° |
| 2026-05-08 09:33 | -6.79812 | 109.19311 | 16800 ft | 250 kts | 100° |
| 2026-05-08 09:33 | -6.80041 | 109.21044 | 16800 ft | 250 kts | 100° |
| 2026-05-08 09:34 | -6.80281 | 109.22775 | 16798 ft | 250 kts | 100° |
| 2026-05-08 09:34 | -6.80525 | 109.24509 | 16798 ft | 250 kts | 100° |
| 2026-05-08 09:34 | -6.80769 | 109.26238 | 16796 ft | 250 kts | 100° |
| 2026-05-08 09:34 | -6.81015 | 109.27974 | 16801 ft | 250 kts | 100° |
| 2026-05-08 09:35 | -6.81256 | 109.29683 | 16801 ft | 250 kts | 100° |
| 2026-05-08 09:35 | -6.81502 | 109.31416 | 16801 ft | 250 kts | 100° |
| 2026-05-08 09:35 | -6.81746 | 109.33152 | 16802 ft | 250 kts | 100° |
| 2026-05-08 09:35 | -6.81990 | 109.34889 | 16799 ft | 251 kts | 100° |
| 2026-05-08 09:36 | -6.82235 | 109.36625 | 16799 ft | 251 kts | 100° |
| 2026-05-08 09:36 | -6.82481 | 109.38365 | 16799 ft | 251 kts | 100° |
| 2026-05-08 09:36 | -6.82727 | 109.40109 | 16798 ft | 251 kts | 100° |
| 2026-05-08 09:36 | -6.82971 | 109.41847 | 16799 ft | 251 kts | 100° |
| 2026-05-08 09:37 | -6.83217 | 109.43589 | 16798 ft | 251 kts | 100° |
| 2026-05-08 09:37 | -6.83460 | 109.45309 | 16798 ft | 251 kts | 100° |
| 2026-05-08 09:37 | -6.83705 | 109.47051 | 16800 ft | 251 kts | 100° |
| 2026-05-08 09:37 | -6.83950 | 109.48790 | 16803 ft | 251 kts | 100° |
| 2026-05-08 09:38 | -6.84195 | 109.50527 | 16801 ft | 249 kts | 100° |
| 2026-05-08 09:38 | -6.84435 | 109.52237 | 16802 ft | 245 kts | 100° |
| 2026-05-08 09:38 | -6.84671 | 109.53924 | 16799 ft | 242 kts | 100° |
| 2026-05-08 09:38 | -6.84905 | 109.55592 | 16803 ft | 239 kts | 100° |
| 2026-05-08 09:39 | -6.85144 | 109.57238 | 16800 ft | 235 kts | 103° |
| 2026-05-08 09:39 | -6.85663 | 109.58769 | 16801 ft | 229 kts | 108° |
| 2026-05-08 09:39 | -6.85986 | 109.60339 | 16801 ft | 230 kts | 102° |
| 2026-05-08 09:39 | -6.86229 | 109.61930 | 16801 ft | 230 kts | 100° |
| 2026-05-08 09:40 | -6.86453 | 109.63524 | 16800 ft | 230 kts | 100° |
| 2026-05-08 09:40 | -6.86669 | 109.65120 | 16801 ft | 230 kts | 100° |
| 2026-05-08 09:40 | -6.86881 | 109.66723 | 16800 ft | 233 kts | 99° |
| 2026-05-08 09:40 | -6.87093 | 109.68354 | 16806 ft | 237 kts | 99° |
| 2026-05-08 09:41 | -6.87309 | 109.69990 | 16801 ft | 240 kts | 99° |
| 2026-05-08 09:41 | -6.87536 | 109.71691 | 16803 ft | 243 kts | 99° |
| 2026-05-08 09:41 | -6.87764 | 109.73385 | 16803 ft | 245 kts | 99° |
| 2026-05-08 09:41 | -6.87990 | 109.75072 | 16807 ft | 247 kts | 99° |
| 2026-05-08 09:42 | -6.88221 | 109.76791 | 16804 ft | 249 kts | 99° |
| 2026-05-08 09:42 | -6.88454 | 109.78525 | 16807 ft | 250 kts | 99° |
| 2026-05-08 09:42 | -6.88689 | 109.80262 | 16801 ft | 251 kts | 99° |
| 2026-05-08 09:42 | -6.88924 | 109.82008 | 16800 ft | 252 kts | 99° |
| 2026-05-08 09:43 | -6.89160 | 109.83756 | 16801 ft | 252 kts | 99° |
| 2026-05-08 09:43 | -6.89396 | 109.85508 | 16800 ft | 253 kts | 99° |
| 2026-05-08 09:43 | -6.89637 | 109.87282 | 16622 ft | 261 kts | 99° |
| 2026-05-08 09:43 | -6.89892 | 109.89123 | 16368 ft | 270 kts | 99° |
| 2026-05-08 09:44 | -6.90176 | 109.90948 | 16088 ft | 276 kts | 103° |
| 2026-05-08 09:44 | -6.90567 | 109.92863 | 15825 ft | 282 kts | 103° |
| 2026-05-08 09:44 | -6.90951 | 109.94820 | 15565 ft | 286 kts | 102° |
| 2026-05-08 09:44 | -6.91279 | 109.96810 | 15311 ft | 290 kts | 100° |
| 2026-05-08 09:45 | -6.91575 | 109.98821 | 15055 ft | 292 kts | 100° |
| 2026-05-08 09:45 | -6.91860 | 110.00810 | 14800 ft | 288 kts | 99° |
| 2026-05-08 09:45 | -6.92136 | 110.02792 | 14542 ft | 284 kts | 99° |
| 2026-05-08 09:45 | -6.92419 | 110.04742 | 14297 ft | 280 kts | 100° |
| 2026-05-08 09:46 | -6.92712 | 110.06674 | 14042 ft | 278 kts | 100° |
| 2026-05-08 09:46 | -6.93002 | 110.08587 | 13796 ft | 276 kts | 100° |
| 2026-05-08 09:46 | -6.93290 | 110.10493 | 13545 ft | 274 kts | 100° |
| 2026-05-08 09:46 | -6.93574 | 110.12386 | 13255 ft | 273 kts | 99° |
| 2026-05-08 09:47 | -6.93858 | 110.14273 | 12985 ft | 272 kts | 100° |
| 2026-05-08 09:47 | -6.94142 | 110.16153 | 12714 ft | 271 kts | 100° |
| 2026-05-08 09:47 | -6.94425 | 110.18031 | 12439 ft | 271 kts | 100° |
| 2026-05-08 09:47 | -6.94711 | 110.19905 | 12166 ft | 270 kts | 100° |
| 2026-05-08 09:48 | -6.94988 | 110.21773 | 11900 ft | 270 kts | 99° |
| 2026-05-08 09:48 | -6.95272 | 110.23634 | 11636 ft | 269 kts | 100° |
| 2026-05-08 09:48 | -6.95553 | 110.25496 | 11379 ft | 269 kts | 99° |
| 2026-05-08 09:48 | -6.95830 | 110.27351 | 11113 ft | 268 kts | 100° |
| 2026-05-08 09:49 | -6.96110 | 110.29182 | 10856 ft | 267 kts | 100° |
| 2026-05-08 09:49 | -6.96387 | 110.31028 | 10601 ft | 266 kts | 99° |
| 2026-05-08 09:49 | -6.96662 | 110.32869 | 10345 ft | 266 kts | 99° |
| 2026-05-08 09:49 | -6.96947 | 110.34704 | 10092 ft | 265 kts | 100° |
| 2026-05-08 09:50 | -6.97235 | 110.36537 | 9739 ft | 264 kts | 100° |
| 2026-05-08 09:50 | -6.97538 | 110.38354 | 9365 ft | 261 kts | 102° |
| 2026-05-08 09:50 | -6.97910 | 110.40131 | 8983 ft | 259 kts | 104° |
| 2026-05-08 09:50 | -6.98316 | 110.41830 | 8606 ft | 237 kts | 105° |
| 2026-05-08 09:51 | -6.98688 | 110.43376 | 8234 ft | 219 kts | 104° |
| 2026-05-08 09:51 | -6.99035 | 110.44822 | 7869 ft | 207 kts | 104° |
| 2026-05-08 09:51 | -6.99364 | 110.46204 | 7512 ft | 199 kts | 104° |
| 2026-05-08 09:51 | -6.99679 | 110.47551 | 7157 ft | 201 kts | 104° |
| 2026-05-08 09:52 | -7.00004 | 110.48958 | 6807 ft | 209 kts | 104° |
| 2026-05-08 09:52 | -7.00340 | 110.50394 | 6453 ft | 213 kts | 104° |
| 2026-05-08 09:52 | -7.00681 | 110.51856 | 6106 ft | 215 kts | 104° |
| 2026-05-08 09:52 | -7.01022 | 110.53328 | 5740 ft | 217 kts | 103° |
| 2026-05-08 09:53 | -7.01357 | 110.54777 | 5374 ft | 207 kts | 103° |
| 2026-05-08 09:53 | -7.01667 | 110.56147 | 5013 ft | 202 kts | 102° |
| 2026-05-08 09:53 | -7.01525 | 110.57517 | 4656 ft | 198 kts | 63° |
| 2026-05-08 09:53 | -7.00745 | 110.58607 | 4299 ft | 190 kts | 53° |
| 2026-05-08 09:54 | -6.99901 | 110.59642 | 3926 ft | 196 kts | 51° |
| 2026-05-08 09:54 | -6.99008 | 110.60702 | 3636 ft | 199 kts | 50° |
| 2026-05-08 09:54 | -6.98107 | 110.61763 | 3405 ft | 200 kts | 50° |
| 2026-05-08 09:54 | -6.97227 | 110.62838 | 3194 ft | 196 kts | 58° |
| 2026-05-08 09:55 | -6.96972 | 110.64127 | 3094 ft | 190 kts | 102° |
| 2026-05-08 09:55 | -6.97686 | 110.65183 | 3033 ft | 184 kts | 147° |
| 2026-05-08 09:55 | -6.98900 | 110.65392 | 3014 ft | 180 kts | 194° |
| 2026-05-08 09:55 | -6.99870 | 110.64676 | 3007 ft | 173 kts | 237° |
| 2026-05-08 09:56 | -7.00476 | 110.63630 | 2987 ft | 180 kts | 240° |
| 2026-05-08 09:56 | -7.01099 | 110.62459 | 2987 ft | 199 kts | 243° |
| 2026-05-08 09:56 | -7.01716 | 110.61153 | 2992 ft | 214 kts | 246° |
| 2026-05-08 09:56 | -7.02355 | 110.59762 | 2996 ft | 224 kts | 244° |
| 2026-05-08 09:57 | -7.02496 | 110.56707 | 2996 ft | 232 kts | 283° |
| 2026-05-08 09:57 | -7.02260 | 110.55094 | 2988 ft | 235 kts | 265° |
| 2026-05-08 09:57 | -7.02884 | 110.53583 | 2932 ft | 242 kts | 230° |
| 2026-05-08 09:58 | -7.04238 | 110.52570 | 2700 ft | 241 kts | 210° |
| 2026-05-08 09:58 | -7.05645 | 110.51734 | 2481 ft | 221 kts | 212° |
| 2026-05-08 09:58 | -7.06592 | 110.50675 | 2265 ft | 197 kts | 250° |
| 2026-05-08 09:58 | -7.06582 | 110.49383 | 2054 ft | 178 kts | 291° |
| 2026-05-08 09:59 | -7.06081 | 110.48302 | 1815 ft | 166 kts | 300° |
| 2026-05-08 09:59 | -7.05469 | 110.47318 | 1603 ft | 165 kts | 306° |
| 2026-05-08 09:59 | -7.04782 | 110.46397 | 1370 ft | 161 kts | 310° |
| 2026-05-08 09:59 | -7.04104 | 110.45545 | 1185 ft | 150 kts | 311° |
| 2026-05-08 10:00 | -7.03471 | 110.44791 | 1016 ft | 135 kts | 314° |
| 2026-05-08 10:00 | -7.02869 | 110.44106 | 801 ft | 128 kts | 315° |
| 2026-05-08 10:00 | -7.02232 | 110.43398 | 1030 ft | 141 kts | 314° |
| 2026-05-08 10:00 | -7.01591 | 110.42649 | 1626 ft | 136 kts | 310° |
| 2026-05-08 10:01 | -7.01018 | 110.41917 | 2186 ft | 141 kts | 307° |
| 2026-05-08 10:01 | -7.00410 | 110.41088 | 2524 ft | 150 kts | 306° |
| 2026-05-08 10:01 | -6.99781 | 110.40230 | 2816 ft | 156 kts | 307° |
| 2026-05-08 10:01 | -6.99095 | 110.39307 | 2915 ft | 174 kts | 307° |
| 2026-05-08 10:02 | -6.98331 | 110.38291 | 2967 ft | 189 kts | 309° |
| 2026-05-08 10:02 | -6.97224 | 110.37577 | 2974 ft | 199 kts | 349° |
| 2026-05-08 10:02 | -6.95853 | 110.37808 | 2977 ft | 209 kts | 30° |
| 2026-05-08 10:02 | -6.94906 | 110.38898 | 2996 ft | 213 kts | 69° |
| 2026-05-08 10:03 | -6.94797 | 110.40296 | 3002 ft | 217 kts | 97° |
| 2026-05-08 10:03 | -6.95040 | 110.41814 | 3006 ft | 222 kts | 100° |
| 2026-05-08 10:03 | -6.95444 | 110.43306 | 2993 ft | 222 kts | 117° |
| 2026-05-08 10:03 | -6.96229 | 110.44650 | 3000 ft | 224 kts | 118° |
| 2026-05-08 10:04 | -6.96931 | 110.46059 | 3000 ft | 226 kts | 115° |
| 2026-05-08 10:04 | -6.97603 | 110.47499 | 3000 ft | 227 kts | 115° |
| 2026-05-08 10:04 | -6.98361 | 110.48891 | 3000 ft | 228 kts | 116° |
| 2026-05-08 10:04 | -6.99043 | 110.50337 | 2988 ft | 229 kts | 114° |
| 2026-05-08 10:05 | -6.99733 | 110.51775 | 2991 ft | 228 kts | 117° |
| 2026-05-08 10:05 | -7.00437 | 110.53216 | 2994 ft | 230 kts | 115° |
| 2026-05-08 10:05 | -7.01121 | 110.54668 | 2994 ft | 229 kts | 117° |
| 2026-05-08 10:05 | -7.01898 | 110.56045 | 2996 ft | 229 kts | 116° |
| 2026-05-08 10:06 | -7.02345 | 110.57564 | 2996 ft | 227 kts | 99° |
| 2026-05-08 10:06 | -7.02517 | 110.59146 | 2991 ft | 227 kts | 90° |
| 2026-05-08 10:06 | -7.02070 | 110.60647 | 2996 ft | 225 kts | 60° |
| 2026-05-08 10:06 | -7.01227 | 110.61982 | 2988 ft | 227 kts | 56° |
| 2026-05-08 10:07 | -7.00300 | 110.63281 | 2989 ft | 228 kts | 53° |
| 2026-05-08 10:07 | -6.99286 | 110.64514 | 2988 ft | 228 kts | 43° |
| 2026-05-08 10:07 | -6.97845 | 110.65146 | 2990 ft | 232 kts | 5° |
| 2026-05-08 10:07 | -6.96292 | 110.64769 | 2983 ft | 235 kts | 329° |
| 2026-05-08 10:08 | -6.95246 | 110.63558 | 2977 ft | 237 kts | 293° |
| 2026-05-08 10:08 | -6.95074 | 110.61931 | 2986 ft | 238 kts | 258° |
| 2026-05-08 10:08 | -6.95847 | 110.60488 | 2998 ft | 236 kts | 227° |
| 2026-05-08 10:08 | -6.97011 | 110.59325 | 2993 ft | 236 kts | 222° |
| 2026-05-08 10:09 | -6.98213 | 110.58195 | 2987 ft | 237 kts | 223° |
| 2026-05-08 10:09 | -6.99418 | 110.57051 | 2989 ft | 238 kts | 223° |
| 2026-05-08 10:09 | -7.00624 | 110.55908 | 2992 ft | 237 kts | 223° |
| 2026-05-08 10:09 | -7.01541 | 110.54575 | 2990 ft | 235 kts | 253° |
| 2026-05-08 10:10 | -7.01533 | 110.52982 | 2993 ft | 222 kts | 285° |
| 2026-05-08 10:10 | -7.01094 | 110.51510 | 2857 ft | 220 kts | 288° |
| 2026-05-08 10:10 | -7.00615 | 110.50035 | 2618 ft | 223 kts | 289° |
| 2026-05-08 10:10 | -7.00116 | 110.48550 | 2377 ft | 224 kts | 289° |
| 2026-05-08 10:11 | -6.99684 | 110.47045 | 2135 ft | 223 kts | 282° |
| 2026-05-08 10:11 | -6.99378 | 110.45618 | 1908 ft | 201 kts | 284° |
| 2026-05-08 10:11 | -6.99023 | 110.44310 | 1701 ft | 186 kts | 285° |
| 2026-05-08 10:11 | -6.98738 | 110.43126 | 1605 ft | 164 kts | 285° |
| 2026-05-08 10:12 | -6.98475 | 110.42060 | 1544 ft | 148 kts | 285° |
| 2026-05-08 10:12 | -6.98331 | 110.41132 | 1470 ft | 125 kts | 266° |
| 2026-05-08 10:12 | -6.98438 | 110.40281 | 1210 ft | 122 kts | 263° |
| 2026-05-08 10:12 | -6.98516 | 110.39407 | 898 ft | 124 kts | 277° |
| 2026-05-08 10:13 | -6.98154 | 110.38623 | 543 ft | 127 kts | 315° |
| 2026-05-08 10:13 | -6.97743 | 110.38208 | 801 ft | 129 kts | 315° |
| 2026-05-08 10:13 | -6.97094 | 110.37507 | 1173 ft | 143 kts | 314° |
| 2026-05-08 10:13 | -6.96330 | 110.36264 | 1414 ft | 177 kts | 303° |
| 2026-05-08 10:14 | -6.95535 | 110.35226 | 1441 ft | 193 kts | 313° |
| 2026-05-08 10:14 | -6.94329 | 110.34626 | 1471 ft | 206 kts | 356° |
| 2026-05-08 10:14 | -6.92937 | 110.35038 | 1503 ft | 220 kts | 36° |
| 2026-05-08 10:14 | -6.92249 | 110.35830 | 1505 ft | 228 kts | 61° |
| 2026-05-08 10:15 | -6.91960 | 110.37412 | 1509 ft | 238 kts | 97° |
| 2026-05-08 10:15 | -6.92841 | 110.39342 | 2036 ft | 219 kts | 120° |
| 2026-05-08 10:15 | -6.93342 | 110.40194 | 2393 ft | 208 kts | 121° |
| 2026-05-08 10:15 | -6.94070 | 110.41402 | 2855 ft | 199 kts | 121° |
| 2026-05-08 10:16 | -6.94831 | 110.42624 | 2926 ft | 210 kts | 122° |